Terminal Aerodrome Forecast
Issued by NWS

Home | Current Version | Previous Version | Text Only | Print | Product List | Glossary On
Versions: 1 2 3 4 5 6 7 8 9 10 11 12 13 14 15 16 17 18 19 20 21 22 23 24 25 26
000
FTAK31 PANC 221148
TAFADL
TAF
PADL 221148Z 2212/2312 35013KT P6SM SKC WS020/02050KT
     FM221800 33012G20KT P6SM SKC WS020/02040KT
     FM230600 33010KT P6SM SKC=

USA.gov is the U.S. government's official web portal to all federal, state and local government web resources and services.